Time;durP1;ratioP1;P1;durP2;ratioP2;P2;SDS_P1;SDS_P2;PMS_P1;PMS_P2;Temp;Humidity;BMP_temperature;BMP_pressure;BME280_temperature;BME280_humidity;BME280_pressure;Samples;Min_cycle;Max_cycle;Signal;HPM_P1;HPM_P2
2024/02/07 00:00:38;;;;;;;1.60;0.75;;;10.50;99.90;;;;;;2585231;54;20829;31
2024/02/07 00:06:38;;;;;;;0.80;0.30;;;10.50;99.90;;;;;;2585293;54;20798;31
2024/02/07 00:09:45;;;;;;;;;;;;;;;;;;;;;
2024/02/07 00:12:40;;;;;;;1.80;0.50;;;10.50;99.90;;;;;;2585230;54;20085;31
2024/02/07 00:55:11;;;;;;;;;;;;;;;;;;;;;
2024/02/07 00:58:39;;;;;;;;;;;;;;;;;;;;;
2024/02/07 01:08:40;;;;;;;;;;;;;;;;;;;;;
2024/02/07 01:14:35;;;;;;;1.40;0.55;;;10.40;99.90;;;;;;2584870;54;20026;31
2024/02/07 01:34:37;;;;;;;;;;;;;;;;;;;;;
2024/02/07 01:37:46;;;;;;;;;;;;;;;;;;;;;
2024/02/07 01:48:52;;;;;;;1.95;0.65;;;10.10;99.90;;;;;;2584134;54;20957;31
2024/02/07 01:52:08;;;;;;;1.48;0.60;;;10.10;99.90;;;;;;2584874;54;20803;31
2024/02/07 01:58:58;;;;;;;2.28;0.73;;;10.10;99.90;;;;;;2584803;54;20842;31
2024/02/07 02:01:46;;;;;;;2.47;0.68;;;10.10;99.90;;;;;;2584690;54;20982;31
2024/02/07 02:04:27;;;;;;;2.70;0.90;;;10.10;99.90;;;;;;2584405;54;20929;31
2024/02/07 02:07:12;;;;;;;2.22;0.68;;;10.00;99.90;;;;;;2584848;54;20970;31
2024/02/07 02:09:51;;;;;;;2.50;0.90;;;10.10;99.90;;;;;;2584671;54;20056;31
2024/02/07 02:12:27;;;;;;;2.05;0.60;;;10.10;99.90;;;;;;2584730;54;20097;31
2024/02/07 02:15:06;;;;;;;2.17;0.70;;;10.10;99.90;;;;;;2584812;54;20145;31
2024/02/07 02:17:47;;;;;;;4.47;0.82;;;10.10;99.90;;;;;;2584329;54;20027;31
2024/02/07 02:20:22;;;;;;;3.85;0.70;;;10.10;99.90;;;;;;2584916;54;20909;31
2024/02/07 02:23:23;;;;;;;3.25;0.55;;;10.10;99.90;;;;;;2603252;47;19934;31
2024/02/07 02:26:43;;;;;;;4.10;0.70;;;10.10;99.90;;;;;;2682726;39;21074;31
2024/02/07 02:29:32;;;;;;;1.70;0.60;;;10.00;99.90;;;;;;2603268;47;19935;31
2024/02/07 02:32:10;;;;;;;1.95;1.00;;;10.10;99.90;;;;;;2584567;54;20067;31
2024/02/07 02:34:59;;;;;;;2.78;0.55;;;10.10;99.90;;;;;;2602813;47;20033;31
2024/02/07 02:37:39;;;;;;;2.30;0.40;;;10.10;99.90;;;;;;2584713;54;20101;31
2024/02/07 02:40:33;;;;;;;3.70;1.30;;;10.10;99.90;;;;;;2584825;54;20938;31
2024/02/07 02:43:16;;;;;;;4.00;0.50;;;10.10;99.90;;;;;;2584613;54;21032;31
2024/02/07 02:46:10;;;;;;;1.65;0.50;;;10.10;99.90;;;;;;2584633;54;20822;31
2024/02/07 02:48:59;;;;;;;2.80;0.70;;;10.10;99.90;;;;;;2584134;54;20963;31
2024/02/07 02:51:39;;;;;;;1.40;0.30;;;10.10;99.90;;;;;;2584474;54;20133;31
2024/02/07 03:03:18;;;;;;;1.30;0.70;;;10.10;99.90;;;;;;2584089;54;20043;31
2024/02/07 03:06:03;;;;;;;4.63;0.75;;;10.10;99.90;;;;;;2584769;54;21885;31
2024/02/07 03:08:54;;;;;;;3.53;0.77;;;10.10;99.90;;;;;;2584658;54;20053;31
2024/02/07 03:11:34;;;;;;;3.00;0.60;;;10.10;99.90;;;;;;2585451;54;22127;31
2024/02/07 03:14:40;;;;;;;1.05;0.40;;;10.10;99.90;;;;;;2585449;54;20896;31
2024/02/07 03:17:28;;;;;;;1.30;0.30;;;10.00;99.90;;;;;;2603603;46;20061;31
2024/02/07 03:20:02;;;;;;;4.43;0.70;;;10.10;99.90;;;;;;2604058;46;20116;31
2024/02/07 03:22:51;;;;;;;1.50;0.50;;;10.10;99.90;;;;;;2584989;54;20052;31
2024/02/07 03:25:42;;;;;;;2.90;0.85;;;10.20;99.90;;;;;;2584806;54;20909;31
2024/02/07 03:28:56;;;;;;;2.00;0.40;;;10.10;99.90;;;;;;2585030;54;20802;31
2024/02/07 03:32:31;;;;;;;2.05;0.70;;;10.10;99.90;;;;;;2585048;54;20030;31
2024/02/07 03:35:21;;;;;;;2.05;0.60;;;10.10;99.90;;;;;;2603685;46;20808;31
2024/02/07 03:38:09;;;;;;;2.00;0.50;;;10.10;99.90;;;;;;2603903;46;20026;31
2024/02/07 03:41:09;;;;;;;1.95;0.50;;;10.10;99.90;;;;;;2585258;54;20060;31
2024/02/07 03:44:16;;;;;;;2.35;0.68;;;10.10;99.90;;;;;;2597866;46;20030;31
2024/02/07 03:47:45;;;;;;;4.40;0.70;;;10.10;99.90;;;;;;2585087;54;20034;31
2024/02/07 04:10:51;;;;;;;;;;;;;;;;;;;;;
2024/02/07 05:17:53;;;;;;;3.13;0.60;;;9.90;99.90;;;;;;2603571;46;20734;31
2024/02/07 05:20:30;;;;;;;4.15;0.90;;;9.90;99.90;;;;;;2584865;54;21027;31
2024/02/07 05:23:07;;;;;;;1.77;0.60;;;9.90;99.90;;;;;;2603333;46;20092;31
2024/02/07 05:25:47;;;;;;;2.67;0.60;;;9.90;99.90;;;;;;2584837;54;20029;31
2024/02/07 05:28:29;;;;;;;2.30;0.80;;;10.00;99.90;;;;;;2585002;54;20026;31
2024/02/07 05:31:14;;;;;;;2.53;1.05;;;10.00;99.90;;;;;;2584916;54;20930;31
2024/02/07 05:33:48;;;;;;;1.23;0.50;;;10.00;99.90;;;;;;2584532;54;20033;31
2024/02/07 05:36:35;;;;;;;1.20;0.60;;;10.10;99.90;;;;;;2603115;46;20026;31
2024/02/07 05:39:22;;;;;;;3.55;0.90;;;10.10;99.90;;;;;;2584850;54;21223;31
2024/02/07 05:47:48;;;;;;;4.30;1.00;;;10.20;99.90;;;;;;2584587;54;20038;31
2024/02/07 05:50:30;;;;;;;2.10;0.55;;;10.20;99.90;;;;;;2603223;46;20998;31
2024/02/07 06:14:08;;;;;;;1.30;0.40;;;10.20;99.90;;;;;;2583760;54;20031;31
2024/02/07 06:16:44;;;;;;;0.85;0.30;;;10.20;99.90;;;;;;2584570;54;20869;31
2024/02/07 06:19:23;;;;;;;1.83;0.40;;;10.20;99.90;;;;;;2602780;47;20998;31
2024/02/07 06:21:59;;;;;;;1.17;0.40;;;10.20;99.90;;;;;;2584055;54;20878;31
2024/02/07 06:24:37;;;;;;;0.90;0.40;;;10.20;99.90;;;;;;2584572;54;20030;31
2024/02/07 06:27:11;;;;;;;1.20;0.40;;;10.20;99.90;;;;;;2603057;47;20042;31
2024/02/07 06:29:46;;;;;;;2.35;0.70;;;10.20;99.90;;;;;;2584611;54;20908;31
2024/02/07 06:32:28;;;;;;;1.40;0.40;;;10.20;99.90;;;;;;2584829;54;20030;31
2024/02/07 06:35:00;;;;;;;2.35;0.20;;;10.20;99.90;;;;;;2602795;47;21022;31
2024/02/07 06:37:39;;;;;;;0.85;0.40;;;10.20;99.90;;;;;;2584805;54;21027;31
2024/02/07 06:40:19;;;;;;;1.45;0.30;;;10.20;99.90;;;;;;2603271;47;20921;31
2024/02/07 06:42:53;;;;;;;1.20;0.30;;;10.20;99.90;;;;;;2584849;54;20073;31
2024/02/07 06:45:29;;;;;;;1.55;0.40;;;10.20;99.90;;;;;;2585758;54;20026;31
2024/02/07 06:48:03;;;;;;;0.85;0.40;;;10.20;99.90;;;;;;2585398;54;20999;31
2024/02/07 06:50:38;;;;;;;1.40;0.30;;;10.20;99.90;;;;;;2585438;54;20897;31
2024/02/07 06:53:14;;;;;;;1.85;0.30;;;10.20;99.90;;;;;;2585316;54;20973;31
2024/02/07 06:55:53;;;;;;;0.50;0.10;;;10.20;99.90;;;;;;2585427;54;20032;31
2024/02/07 06:58:38;;;;;;;3.85;0.25;;;10.30;99.90;;;;;;2585337;54;20293;31
2024/02/07 07:01:10;;;;;;;3.05;0.30;;;10.30;99.90;;;;;;2603464;46;20876;31
2024/02/07 07:03:50;;;;;;;1.60;0.35;;;10.30;99.90;;;;;;2603906;46;21899;31
2024/02/07 07:06:31;;;;;;;1.17;0.38;;;10.30;99.90;;;;;;2585371;54;20112;31
2024/02/07 07:11:54;;;;;;;2.55;0.50;;;10.30;99.90;;;;;;2585421;54;21051;31
2024/02/07 07:14:45;;;;;;;1.75;0.40;;;10.30;99.90;;;;;;2603529;46;20033;31
2024/02/07 07:52:05;;;;;;;2.67;0.68;;;10.40;99.90;;;;;;2584678;54;20030;31
2024/02/07 07:55:22;;;;;;;1.13;0.20;;;10.30;99.90;;;;;;2584672;54;20894;31
2024/02/07 08:00:35;;;;;;;4.30;0.40;;;10.30;99.90;;;;;;2579883;54;20932;31
2024/02/07 08:03:16;;;;;;;6.65;2.58;;;10.40;99.90;;;;;;2579788;54;20046;31
2024/02/07 08:06:03;;;;;;;2.10;0.40;;;10.40;99.90;;;;;;2598100;46;21036;31
2024/02/07 08:08:43;;;;;;;0.97;0.37;;;10.40;99.90;;;;;;2579182;54;20121;31
2024/02/07 08:11:43;;;;;;;0.60;0.40;;;10.40;99.90;;;;;;2579468;54;20064;31
2024/02/07 08:20:18;;;;;;;1.30;0.23;;;10.10;99.90;;;;;;2579547;54;21146;31
2024/02/07 08:23:17;;;;;;;1.03;0.30;;;9.70;99.90;;;;;;2580393;54;22476;31
2024/02/07 08:25:59;;;;;;;0.50;0.10;;;9.30;99.90;;;;;;2579844;54;21662;31
2024/02/07 08:28:33;;;;;;;0.40;0.10;;;8.90;99.90;;;;;;2597801;46;20042;31
2024/02/07 08:31:21;;;;;;;0.30;0.10;;;8.70;99.90;;;;;;2598425;46;21202;31
2024/02/07 08:33:58;;;;;;;0.30;0.03;;;8.50;99.90;;;;;;2598660;46;22286;31
2024/02/07 08:36:42;;;;;;;0.33;0.10;;;8.30;99.90;;;;;;2579737;46;21193;31
2024/02/07 08:39:20;;;;;;;0.60;0.15;;;8.00;99.90;;;;;;2578919;39;21731;31
2024/02/07 08:44:46;;;;;;;0.82;0.30;;;7.90;99.90;;;;;;2580084;54;20069;31
2024/02/07 08:53:32;;;;;;;0.87;0.30;;;7.80;99.90;;;;;;2579918;54;20991;31
2024/02/07 08:56:23;;;;;;;0.40;0.30;;;7.60;99.90;;;;;;2579754;54;20927;31
2024/02/07 09:02:36;;;;;;;1.20;0.60;;;7.20;99.90;;;;;;2579013;54;20870;31
2024/02/07 09:39:36;;;;;;;3.45;1.02;;;6.20;99.90;;;;;;2576618;54;20034;31
2024/02/07 09:42:30;;;;;;;1.30;0.50;;;6.20;99.90;;;;;;2597719;46;20813;31
2024/02/07 09:45:34;;;;;;;1.40;0.50;;;6.20;99.90;;;;;;2580145;54;20986;31
2024/02/07 09:54:39;;;;;;;0.80;0.30;;;6.20;99.90;;;;;;2576559;54;20038;31
2024/02/07 09:57:36;;;;;;;1.05;0.30;;;6.10;99.90;;;;;;2579716;54;20043;31
2024/02/07 10:03:13;;;;;;;0.70;0.10;;;6.00;99.90;;;;;;2578651;54;20836;31
2024/02/07 10:08:46;;;;;;;0.63;0.10;;;5.80;99.90;;;;;;2578815;54;20996;31
2024/02/07 10:11:45;;;;;;;0.10;0.00;;;5.70;99.90;;;;;;2578940;54;20045;31
2024/02/07 10:14:21;;;;;;;0.50;0.10;;;5.60;99.90;;;;;;2579448;54;20066;31
2024/02/07 10:17:04;;;;;;;2.30;0.45;;;5.60;99.90;;;;;;2579269;54;20916;31
2024/02/07 10:19:47;;;;;;;1.55;0.10;;;5.60;99.90;;;;;;2580509;54;20129;31
2024/02/07 10:22:33;;;;;;;0.77;0.20;;;5.60;99.90;;;;;;2592433;46;20065;31
2024/02/07 10:25:13;;;;;;;0.68;0.20;;;5.50;99.90;;;;;;2579863;54;20072;31
2024/02/07 10:27:57;;;;;;;0.20;0.10;;;5.40;99.90;;;;;;2579940;54;20924;31
2024/02/07 10:30:44;;;;;;;1.50;0.23;;;5.30;99.90;;;;;;2582740;39;22105;31
2024/02/07 10:33:39;;;;;;;2.10;0.10;;;5.30;99.90;;;;;;2580878;54;20050;31
2024/02/07 10:36:24;;;;;;;0.73;0.20;;;5.20;99.90;;;;;;2579097;54;20065;31
2024/02/07 10:39:07;;;;;;;1.52;0.28;;;5.20;99.90;;;;;;2579019;54;20058;31
2024/02/07 10:44:31;;;;;;;2.40;0.30;;;5.20;99.90;;;;;;2579212;54;19954;31
2024/02/07 10:47:30;;;;;;;3.35;0.40;;;5.20;99.90;;;;;;2598984;46;20038;31
2024/02/07 10:50:20;;;;;;;3.20;1.00;;;5.20;99.90;;;;;;2579932;54;20911;31
2024/02/07 10:53:08;;;;;;;3.00;1.27;;;5.30;99.90;;;;;;2580311;54;20042;31
2024/02/07 10:55:53;;;;;;;2.75;0.40;;;5.40;99.90;;;;;;2581759;39;22263;31
2024/02/07 10:58:41;;;;;;;4.00;1.00;;;5.40;99.90;;;;;;2580021;54;20815;31
2024/02/07 11:01:32;;;;;;;1.10;0.20;;;5.40;99.90;;;;;;2580378;54;20784;31
2024/02/07 11:07:13;;;;;;;2.55;0.30;;;5.50;99.90;;;;;;2580321;54;20073;31
2024/02/07 11:10:04;;;;;;;1.03;0.20;;;5.50;99.90;;;;;;2579983;54;21059;31
2024/02/07 11:12:45;;;;;;;1.70;0.40;;;5.60;99.90;;;;;;2580431;54;20286;31
2024/02/07 11:15:24;;;;;;;1.75;0.60;;;5.60;99.90;;;;;;2579942;54;20918;31
2024/02/07 11:18:19;;;;;;;2.00;0.70;;;5.60;99.90;;;;;;2580098;54;20050;31
2024/02/07 11:30:33;;;;;;;1.83;0.52;;;5.60;99.90;;;;;;2580198;54;20947;31
2024/02/07 11:36:25;;;;;;;1.90;0.40;;;5.50;99.90;;;;;;2580395;54;20049;31
2024/02/07 11:39:06;;;;;;;1.20;0.30;;;5.50;99.90;;;;;;2579969;54;20948;31
2024/02/07 11:41:50;;;;;;;0.70;0.40;;;5.50;99.90;;;;;;2580038;54;20042;31
2024/02/07 11:44:29;;;;;;;2.67;0.30;;;5.50;99.90;;;;;;2579476;54;20690;31
2024/02/07 11:47:08;;;;;;;2.13;0.75;;;5.50;99.90;;;;;;2579825;54;20052;31
2024/02/07 11:49:57;;;;;;;1.58;0.80;;;5.50;99.90;;;;;;2580013;54;20042;31
2024/02/07 11:52:46;;;;;;;3.80;0.30;;;5.50;99.90;;;;;;2581534;39;22089;31
2024/02/07 11:55:28;;;;;;;2.45;0.60;;;5.60;99.90;;;;;;2598366;46;20966;31
2024/02/07 11:58:09;;;;;;;3.53;0.40;;;5.50;99.90;;;;;;2598922;46;20888;31
2024/02/07 12:00:44;;;;;;;1.80;0.60;;;5.50;99.90;;;;;;2585407;46;20935;31
2024/02/07 12:03:29;;;;;;;1.23;0.50;;;5.50;99.90;;;;;;2598659;46;21181;31
2024/02/07 12:06:07;;;;;;;2.53;0.47;;;5.40;99.90;;;;;;2579931;54;20262;31
2024/02/07 12:08:51;;;;;;;1.73;0.43;;;5.40;99.90;;;;;;2597999;46;20861;31
2024/02/07 12:11:29;;;;;;;2.70;0.40;;;5.40;99.90;;;;;;2598641;46;20991;31
2024/02/07 12:14:06;;;;;;;5.28;0.50;;;5.40;99.90;;;;;;2598642;46;20076;31
2024/02/07 12:16:42;;;;;;;1.60;0.30;;;5.40;99.90;;;;;;2598486;46;20891;31
2024/02/07 12:19:23;;;;;;;2.05;0.40;;;5.40;99.90;;;;;;2580116;54;20253;31
2024/02/07 12:22:04;;;;;;;3.90;0.53;;;5.40;99.90;;;;;;2598002;46;20974;31
2024/02/07 12:24:47;;;;;;;7.80;0.52;;;5.40;99.90;;;;;;2598383;46;20927;31
2024/02/07 12:30:22;;;;;;;3.50;0.70;;;5.30;99.90;;;;;;2579522;54;20046;31
2024/02/07 12:33:02;;;;;;;3.70;0.73;;;5.30;99.90;;;;;;2580085;54;20833;31
2024/02/07 12:36:10;;;;;;;2.83;0.52;;;5.40;99.90;;;;;;2579919;54;21135;31
2024/02/07 12:38:51;;;;;;;2.05;0.38;;;5.40;99.90;;;;;;2580902;39;22175;31
2024/02/07 12:41:31;;;;;;;1.55;0.30;;;5.40;99.90;;;;;;2579123;54;20097;31
2024/02/07 12:44:11;;;;;;;4.07;0.50;;;5.40;99.90;;;;;;2579654;54;20052;31
2024/02/07 12:46:52;;;;;;;1.20;0.30;;;5.40;99.90;;;;;;2598150;46;21288;31
2024/02/07 12:49:27;;;;;;;2.27;0.30;;;5.40;99.90;;;;;;2579615;54;20867;31
2024/02/07 12:52:05;;;;;;;2.35;0.55;;;5.40;99.90;;;;;;2579264;54;20046;31
2024/02/07 12:54:50;;;;;;;0.85;0.30;;;5.40;99.90;;;;;;2579055;54;20859;31
2024/02/07 12:57:33;;;;;;;2.43;0.40;;;5.50;99.90;;;;;;2579733;46;20040;31
2024/02/07 13:00:21;;;;;;;2.05;0.50;;;5.50;99.90;;;;;;2580590;39;22363;31
2024/02/07 13:02:59;;;;;;;4.47;0.95;;;5.50;99.90;;;;;;2579507;54;20049;31
2024/02/07 13:06:01;;;;;;;2.10;0.85;;;5.50;99.90;;;;;;2601372;39;20429;31
2024/02/07 13:08:37;;;;;;;2.00;0.90;;;5.50;99.90;;;;;;2579558;54;20928;31
2024/02/07 13:11:14;;;;;;;2.30;0.60;;;5.50;99.90;;;;;;2598245;46;20975;31
2024/02/07 13:14:06;;;;;;;4.20;1.10;;;5.40;99.90;;;;;;2579877;54;20042;31
2024/02/07 13:16:43;;;;;;;1.77;0.63;;;5.40;99.90;;;;;;2598327;46;21689;31
2024/02/07 13:19:30;;;;;;;2.03;0.75;;;5.40;99.90;;;;;;2600642;39;20656;31
2024/02/07 13:22:13;;;;;;;4.35;0.75;;;5.50;99.90;;;;;;2579495;54;20042;31
2024/02/07 13:24:53;;;;;;;3.60;1.15;;;5.50;99.90;;;;;;2598059;46;20088;31
2024/02/07 13:27:30;;;;;;;3.35;1.00;;;5.50;99.90;;;;;;2579574;54;20810;31
2024/02/07 13:30:26;;;;;;;7.60;3.10;;;5.50;99.90;;;;;;2579474;54;20084;31
2024/02/07 13:33:05;;;;;;;7.78;3.00;;;5.60;99.90;;;;;;2579978;39;21425;31
2024/02/07 13:35:54;;;;;;;11.55;5.28;;;5.60;99.90;;;;;;2580086;54;20039;31
2024/02/07 13:38:29;;;;;;;4.75;2.38;;;5.60;99.90;;;;;;2598382;46;20042;31
2024/02/07 13:41:19;;;;;;;4.93;1.77;;;5.60;99.90;;;;;;2598180;46;20878;31
2024/02/07 13:44:08;;;;;;;5.60;1.48;;;5.50;99.90;;;;;;2579692;54;20776;31
2024/02/07 13:47:12;;;;;;;3.50;1.30;;;5.50;99.90;;;;;;2578510;54;21025;31
2024/02/07 13:49:57;;;;;;;2.60;1.52;;;5.50;99.90;;;;;;2579255;54;20962;31
2024/02/07 13:52:37;;;;;;;3.25;0.90;;;5.50;99.90;;;;;;2579584;54;20188;31
2024/02/07 13:55:30;;;;;;;2.55;1.05;;;5.40;99.90;;;;;;2579457;54;20122;31
2024/02/07 13:58:19;;;;;;;1.40;0.75;;;5.50;99.90;;;;;;2583187;39;21437;31
2024/02/07 14:00:57;;;;;;;2.20;1.00;;;5.40;99.90;;;;;;2579740;54;20913;31
2024/02/07 14:03:39;;;;;;;4.28;1.05;;;5.40;99.90;;;;;;2579629;54;21074;31
2024/02/07 14:06:21;;;;;;;7.65;2.50;;;5.40;99.90;;;;;;2579664;54;20042;31
2024/02/07 14:09:01;;;;;;;9.10;3.15;;;5.50;99.90;;;;;;2579317;54;20042;31
2024/02/07 14:11:46;;;;;;;7.78;2.63;;;5.50;99.90;;;;;;2579640;54;20049;31
2024/02/07 14:17:20;;;;;;;4.03;1.73;;;5.50;99.90;;;;;;2583452;47;20266;31
2024/02/07 14:20:28;;;;;;;2.55;1.10;;;5.40;99.90;;;;;;2578546;54;20055;31
2024/02/07 14:23:10;;;;;;;1.00;0.70;;;5.40;99.90;;;;;;2579137;54;20060;31
2024/02/07 14:25:48;;;;;;;3.83;1.20;;;5.40;99.90;;;;;;2579524;54;21045;31
2024/02/07 14:28:24;;;;;;;6.10;1.80;;;5.40;99.90;;;;;;2579328;54;20930;31
2024/02/07 14:31:03;;;;;;;2.00;1.15;;;5.40;99.90;;;;;;2579097;54;20949;31
2024/02/07 14:33:39;;;;;;;3.58;1.20;;;5.30;99.90;;;;;;2578508;54;20967;31
2024/02/07 14:36:13;;;;;;;4.07;1.40;;;5.30;99.90;;;;;;2597373;47;21549;31
2024/02/07 14:38:53;;;;;;;2.40;1.02;;;5.30;99.90;;;;;;2597825;47;20809;31
2024/02/07 14:41:27;;;;;;;2.08;1.15;;;5.30;99.90;;;;;;2583326;39;21466;31
2024/02/07 14:44:03;;;;;;;2.33;0.85;;;5.20;99.90;;;;;;2579153;54;20047;31
2024/02/07 14:46:41;;;;;;;2.33;0.90;;;5.20;99.90;;;;;;2579641;54;20042;31
2024/02/07 14:49:16;;;;;;;2.45;1.10;;;5.20;99.90;;;;;;2579181;54;20121;31
2024/02/07 14:51:52;;;;;;;2.70;0.90;;;5.20;99.90;;;;;;2579362;54;20050;31
2024/02/07 14:54:29;;;;;;;2.17;0.73;;;5.20;99.90;;;;;;2579076;54;25165;31
2024/02/07 14:57:03;;;;;;;3.03;1.00;;;5.20;99.90;;;;;;2579485;54;20054;31
2024/02/07 14:59:45;;;;;;;3.77;1.53;;;5.20;99.90;;;;;;2579036;54;20247;31
2024/02/07 15:02:19;;;;;;;2.58;1.20;;;5.20;99.90;;;;;;2583449;39;22319;31
2024/02/07 15:04:58;;;;;;;3.57;1.40;;;5.20;99.90;;;;;;2579893;54;20959;31
2024/02/07 15:07:34;;;;;;;4.57;1.20;;;5.10;99.90;;;;;;2580172;54;20065;31
2024/02/07 15:10:13;;;;;;;2.50;1.20;;;5.10;99.90;;;;;;2580036;54;20715;31
2024/02/07 15:12:49;;;;;;;2.50;1.07;;;5.10;99.90;;;;;;2598498;46;20046;31
2024/02/07 15:15:23;;;;;;;2.27;0.93;;;5.10;99.90;;;;;;2598489;46;20792;31
2024/02/07 15:17:59;;;;;;;1.60;1.08;;;5.00;99.90;;;;;;2579806;54;20971;31
2024/02/07 15:20:33;;;;;;;2.42;1.05;;;5.00;99.90;;;;;;2598659;46;20048;31
2024/02/07 15:23:07;;;;;;;2.53;1.10;;;4.90;99.90;;;;;;2598285;46;20072;31
2024/02/07 15:25:49;;;;;;;2.17;1.00;;;4.90;99.90;;;;;;2580402;39;21312;31
2024/02/07 15:28:27;;;;;;;1.70;0.95;;;4.90;99.90;;;;;;2580297;54;20039;31
2024/02/07 15:31:09;;;;;;;3.30;1.30;;;4.90;99.90;;;;;;2579983;54;20986;31
2024/02/07 15:33:44;;;;;;;2.72;1.15;;;4.90;99.90;;;;;;2580253;54;20077;31
2024/02/07 15:36:18;;;;;;;3.47;1.80;;;4.90;99.90;;;;;;2580159;54;20105;31
2024/02/07 15:38:52;;;;;;;2.38;1.42;;;4.90;99.90;;;;;;2579820;54;20967;31
2024/02/07 15:41:31;;;;;;;4.37;1.50;;;4.90;99.90;;;;;;2579930;54;20916;31
2024/02/07 15:44:05;;;;;;;5.23;1.40;;;4.80;99.90;;;;;;2580105;54;21113;31
2024/02/07 15:46:38;;;;;;;2.85;1.00;;;4.80;99.90;;;;;;2579834;54;21014;31
2024/02/07 15:49:15;;;;;;;3.78;1.40;;;4.80;99.90;;;;;;2598711;46;20781;31
2024/02/07 15:51:50;;;;;;;3.97;1.13;;;4.80;99.90;;;;;;2579958;54;20046;31
2024/02/07 15:54:23;;;;;;;2.70;1.15;;;4.80;99.90;;;;;;2579692;54;20168;31
2024/02/07 15:57:05;;;;;;;4.05;1.10;;;4.80;99.90;;;;;;2598105;46;20994;31
2024/02/07 15:59:46;;;;;;;4.50;1.73;;;4.70;99.90;;;;;;2580144;54;20077;31
2024/02/07 16:02:18;;;;;;;3.83;1.30;;;4.70;99.90;;;;;;2602002;46;20026;31
2024/02/07 16:04:53;;;;;;;5.45;2.20;;;4.70;99.90;;;;;;2585545;54;20027;31
2024/02/07 16:07:29;;;;;;;6.70;2.20;;;4.60;99.90;;;;;;2603899;46;20913;31
2024/02/07 16:10:04;;;;;;;4.87;1.83;;;4.60;99.90;;;;;;2603631;46;20054;31
2024/02/07 16:12:39;;;;;;;4.40;2.10;;;4.60;99.90;;;;;;2585669;54;21120;31
2024/02/07 16:15:20;;;;;;;3.90;1.58;;;4.60;99.90;;;;;;2585418;54;20042;31
2024/02/07 16:17:55;;;;;;;5.83;2.23;;;4.60;99.90;;;;;;2585654;54;20033;31
2024/02/07 16:20:29;;;;;;;5.50;1.90;;;4.70;99.90;;;;;;2585507;54;21126;31
2024/02/07 16:23:03;;;;;;;5.77;1.90;;;4.70;99.90;;;;;;2585517;54;20031;31
2024/02/07 16:25:37;;;;;;;3.90;2.03;;;4.60;99.90;;;;;;2604058;46;21914;31
2024/02/07 16:28:15;;;;;;;4.32;2.17;;;4.60;99.90;;;;;;2585527;54;20897;31
2024/02/07 16:30:50;;;;;;;3.83;1.85;;;4.60;99.90;;;;;;2585381;54;20048;31
2024/02/07 16:33:23;;;;;;;3.80;1.63;;;4.50;99.90;;;;;;2585295;54;20022;31
2024/02/07 16:35:59;;;;;;;3.73;1.63;;;4.50;99.90;;;;;;2603550;46;21549;31
2024/02/07 16:38:33;;;;;;;5.40;1.60;;;4.50;99.90;;;;;;2585307;54;20036;31
2024/02/07 16:41:09;;;;;;;4.60;1.92;;;4.50;99.90;;;;;;2683423;39;21154;31
2024/02/07 16:43:47;;;;;;;4.20;2.15;;;4.50;99.90;;;;;;2585295;54;20073;31
2024/02/07 16:46:22;;;;;;;4.32;2.05;;;4.40;99.90;;;;;;2585433;54;20026;31
2024/02/07 16:48:57;;;;;;;5.87;2.10;;;4.40;99.90;;;;;;2603939;46;20108;31
2024/02/07 16:51:32;;;;;;;5.40;2.80;;;4.40;99.90;;;;;;2603582;46;21146;31
2024/02/07 16:54:08;;;;;;;5.10;2.40;;;4.40;99.90;;;;;;2585388;54;20030;31
2024/02/07 16:56:43;;;;;;;6.05;2.60;;;4.40;99.90;;;;;;2585281;54;20234;31
2024/02/07 16:59:19;;;;;;;5.00;2.83;;;4.40;99.90;;;;;;2585513;54;20930;31
2024/02/07 17:01:52;;;;;;;;;;;4.40;99.90;;;;;;2585599;54;21977;31
2024/02/07 17:04:24;;;;;;;8.50;2.75;;;4.40;99.90;;;;;;2683268;39;20959;31
2024/02/07 17:07:00;;;;;;;5.97;2.80;;;4.40;99.90;;;;;;2585377;54;20033;31
2024/02/07 17:09:37;;;;;;;5.50;2.40;;;4.40;99.90;;;;;;2585296;54;20029;31
2024/02/07 17:12:12;;;;;;;5.38;2.65;;;4.40;99.90;;;;;;2585122;54;20054;31
2024/02/07 17:14:48;;;;;;;4.70;1.95;;;4.30;99.90;;;;;;2683320;39;21039;31
2024/02/07 17:17:21;;;;;;;3.95;1.85;;;4.30;99.90;;;;;;2585181;54;19941;31
2024/02/07 17:19:57;;;;;;;5.00;2.10;;;4.40;99.90;;;;;;2585226;54;20802;31
2024/02/07 17:22:32;;;;;;;5.13;2.97;;;4.40;99.90;;;;;;2585437;54;20030;31
2024/02/07 17:25:07;;;;;;;4.97;2.47;;;4.30;99.90;;;;;;2585419;54;20053;31
2024/02/07 17:27:42;;;;;;;4.25;2.10;;;4.30;99.90;;;;;;2584864;54;20297;31
2024/02/07 17:30:20;;;;;;;6.82;2.20;;;4.30;99.90;;;;;;2585068;54;20148;31
2024/02/07 17:33:06;;;;;;;5.63;2.05;;;4.30;99.90;;;;;;2603819;46;20027;31
2024/02/07 17:35:40;;;;;;;5.35;1.98;;;4.30;99.90;;;;;;2585006;54;21023;31
2024/02/07 17:38:14;;;;;;;5.50;2.47;;;4.30;99.90;;;;;;2585413;54;20032;31
2024/02/07 17:40:49;;;;;;;6.00;2.00;;;4.20;99.90;;;;;;2603504;46;20921;31
2024/02/07 17:43:25;;;;;;;3.50;1.60;;;4.20;99.90;;;;;;2585252;54;20097;31
2024/02/07 17:46:01;;;;;;;6.57;1.73;;;4.20;99.90;;;;;;2603515;46;20101;31
2024/02/07 17:48:36;;;;;;;6.65;1.98;;;4.20;99.90;;;;;;2585218;54;20937;31
2024/02/07 17:51:10;;;;;;;4.45;1.77;;;4.10;99.90;;;;;;2585322;54;21839;31
2024/02/07 17:53:43;;;;;;;3.70;1.40;;;4.20;99.90;;;;;;2584992;54;20866;31
2024/02/07 17:56:18;;;;;;;6.30;1.63;;;4.10;99.90;;;;;;2585059;54;20030;31
2024/02/07 17:58:51;;;;;;;8.60;2.20;;;4.20;99.90;;;;;;2585153;54;20786;31
2024/02/07 18:01:29;;;;;;;19.33;2.90;;;4.30;99.90;;;;;;2585129;54;20937;31
2024/02/07 18:04:02;;;;;;;7.72;2.00;;;4.50;99.90;;;;;;2603128;46;21009;31
2024/02/07 18:06:39;;;;;;;5.55;2.00;;;4.50;99.90;;;;;;2584972;54;21034;31
2024/02/07 18:09:18;;;;;;;8.85;2.30;;;4.60;99.90;;;;;;2584116;54;20900;31
2024/02/07 18:11:51;;;;;;;6.35;1.80;;;4.60;99.90;;;;;;2584906;54;20635;31
2024/02/07 18:14:24;;;;;;;9.77;2.40;;;4.50;99.90;;;;;;2754309;31;21186;31
2024/02/07 18:17:04;;;;;;;6.30;2.60;;;4.50;99.90;;;;;;2585138;54;20022;31
2024/02/07 18:19:41;;;;;;;7.80;2.77;;;4.40;99.90;;;;;;2584884;54;20209;31
2024/02/07 18:22:18;;;;;;;6.90;1.65;;;4.40;99.90;;;;;;2584939;54;20031;31
2024/02/07 18:24:52;;;;;;;8.40;3.40;;;4.30;99.90;;;;;;2585235;54;20085;31
2024/02/07 18:27:28;;;;;;;7.55;2.97;;;4.30;99.90;;;;;;2603456;47;20943;31
2024/02/07 18:30:03;;;;;;;8.43;2.33;;;4.30;99.90;;;;;;2753885;31;22558;31
2024/02/07 18:32:41;;;;;;;9.45;2.45;;;4.30;99.90;;;;;;2602660;47;20030;31
2024/02/07 18:35:16;;;;;;;6.70;2.30;;;4.20;99.90;;;;;;2603241;47;21177;31
2024/02/07 18:37:52;;;;;;;9.25;2.70;;;4.20;99.90;;;;;;2584777;54;20085;31
2024/02/07 18:40:27;;;;;;;6.18;2.40;;;4.10;99.90;;;;;;2604050;46;21189;31
2024/02/07 18:43:01;;;;;;;7.80;2.20;;;4.10;99.90;;;;;;2585760;54;20909;31
2024/02/07 18:45:39;;;;;;;9.50;2.80;;;4.10;99.90;;;;;;2585606;54;20087;31
2024/02/07 18:48:17;;;;;;;8.90;3.63;;;4.20;99.90;;;;;;2585471;54;20046;31
2024/02/07 18:50:52;;;;;;;8.00;2.35;;;4.10;99.90;;;;;;2603704;46;20898;31
2024/02/07 18:53:27;;;;;;;5.85;2.55;;;4.10;99.90;;;;;;2585365;54;20869;31
2024/02/07 18:56:03;;;;;;;7.25;2.80;;;4.20;99.90;;;;;;2585731;54;20923;31
2024/02/07 18:58:37;;;;;;;7.55;4.10;;;4.10;99.90;;;;;;2604356;46;20953;31
2024/02/07 19:01:13;;;;;;;8.40;3.70;;;4.10;99.90;;;;;;2585459;54;20808;31
2024/02/07 19:04:04;;;;;;;8.50;3.10;;;4.10;99.90;;;;;;2585596;54;20097;31
2024/02/07 19:06:43;;;;;;;10.80;4.00;;;4.20;99.90;;;;;;2585415;54;21139;31
2024/02/07 19:09:29;;;;;;;16.05;4.80;;;4.60;99.90;;;;;;2603727;46;20053;31
2024/02/07 19:15:18;;;;;;;10.27;4.30;;;4.60;99.90;;;;;;2585482;54;20031;31
2024/02/07 19:18:02;;;;;;;10.03;3.80;;;4.60;99.90;;;;;;2585429;54;20968;31
2024/02/07 19:20:46;;;;;;;8.38;3.85;;;4.50;99.90;;;;;;2585605;54;20886;31
2024/02/07 19:23:30;;;;;;;8.87;3.93;;;4.40;99.90;;;;;;2585548;54;20062;31
2024/02/07 19:26:16;;;;;;;10.35;3.20;;;4.40;99.90;;;;;;2585749;54;20030;31
2024/02/07 19:28:59;;;;;;;7.60;3.23;;;4.40;99.90;;;;;;2584735;54;20054;31
2024/02/07 19:31:41;;;;;;;10.05;3.65;;;4.30;99.90;;;;;;2584595;54;20996;31
2024/02/07 19:34:18;;;;;;;10.43;3.53;;;4.30;99.90;;;;;;2603554;46;20077;31
2024/02/07 19:37:03;;;;;;;11.02;4.30;;;4.20;99.90;;;;;;2585877;54;21123;31
2024/02/07 19:39:40;;;;;;;10.70;3.70;;;4.20;99.90;;;;;;2585558;54;20164;31
2024/02/07 19:42:20;;;;;;;9.02;4.22;;;4.20;99.90;;;;;;2585468;54;20761;31
2024/02/07 19:45:04;;;;;;;10.43;3.30;;;4.20;99.90;;;;;;2603819;46;21315;31
2024/02/07 19:47:46;;;;;;;8.55;3.85;;;4.20;99.90;;;;;;2585795;54;20915;31
2024/02/07 19:50:30;;;;;;;10.57;4.00;;;4.20;99.90;;;;;;2585327;54;20060;31
2024/02/07 19:53:22;;;;;;;8.95;3.25;;;4.10;99.90;;;;;;2585692;54;20945;31
2024/02/07 19:56:09;;;;;;;14.35;4.20;;;4.10;99.90;;;;;;2585141;54;20977;31
2024/02/07 19:58:47;;;;;;;10.40;3.53;;;4.10;99.90;;;;;;2701044;39;20444;31
2024/02/07 20:01:27;;;;;;;8.23;2.85;;;4.10;99.90;;;;;;2584959;54;21140;31
2024/02/07 20:04:17;;;;;;;6.90;2.55;;;4.10;99.90;;;;;;2585694;54;20026;31
2024/02/07 20:06:58;;;;;;;12.15;3.50;;;4.00;99.90;;;;;;2585244;54;20983;31